Time;durP1;ratioP1;P1;durP2;ratioP2;P2;SDS_P1;SDS_P2;PMS_P1;PMS_P2;Temp;Humidity;BMP_temperature;BMP_pressure;BME280_temperature;BME280_humidity;BME280_pressure;Samples;Min_cycle;Max_cycle;Signal;HPM_P1;HPM_P2
2022/05/13 00:05:07;;;;;;;;;;;;;;;;;;;;;
2022/05/13 00:07:35;;;;;;;;;;;14.30;99.90;;;;;;5008135;28;19909;-88
2022/05/13 00:10:25;;;;;;;;;;;14.30;99.90;;;;;;5010683;28;20409;-87
2022/05/13 00:13:00;;;;;;;;;;;14.30;99.90;;;;;;5012230;28;19917;-87
2022/05/13 00:15:39;;;;;;;;;;;14.20;99.90;;;;;;5010783;28;20398;-88
2022/05/13 00:18:07;;;;;;;;;;;14.20;99.90;;;;;;5012340;28;19914;-87
2022/05/13 00:20:50;;;;;;;;;;;14.20;99.90;;;;;;5011049;28;20289;-88
2022/05/13 00:23:18;;;;;;;;;;;14.10;99.90;;;;;;5012491;28;19918;-88
2022/05/13 00:28:30;;;;;;;;;;;14.00;99.90;;;;;;5011386;28;20409;-87
2022/05/13 00:30:59;;;;;;;;;;;14.00;99.90;;;;;;5011917;28;20016;-87
2022/05/13 00:33:46;;;;;;;;;;;;;;;;;;;;;
2022/05/13 00:36:20;;;;;;;;;;;13.90;99.90;;;;;;5012653;28;19917;-86
2022/05/13 00:38:47;;;;;;;;;;;13.80;99.90;;;;;;5010933;28;19913;-86
2022/05/13 00:41:23;;;;;;;;;;;;;;;;;;;;;
2022/05/13 00:44:02;;;;;;;;;;;13.70;99.90;;;;;;5011215;28;19917;-87
2022/05/13 00:46:30;;;;;;;;;;;13.70;99.90;;;;;;5011234;28;19917;-86
2022/05/13 00:48:58;;;;;;;;;;;13.60;99.90;;;;;;5011048;28;19929;-87
2022/05/13 00:54:37;;;;;;;;;;;13.50;99.90;;;;;;5007730;28;19960;-87
2022/05/13 00:57:06;;;;;;;;;;;13.50;99.90;;;;;;5010443;28;19928;-88
2022/05/13 01:00:33;;;;;;;;;;;;;;;;;;;;;
2022/05/13 01:02:51;;;;;;;;;;;13.30;99.90;;;;;;5009568;28;19937;-88
2022/05/13 01:05:19;;;;;;;;;;;13.30;99.90;;;;;;5012239;28;19913;-87
2022/05/13 01:08:01;;;;;;;;;;;;;;;;;;;;;
2022/05/13 01:13:54;;;;;;;;;;;13.10;1.00;;;;;;5009792;28;19919;-87
2022/05/13 01:16:19;;;;;;;;;;;13.00;1.00;;;;;;5012500;28;19914;-87
2022/05/13 01:18:45;;;;;;;;;;;12.90;1.00;;;;;;5012062;28;19914;-86
2022/05/13 01:21:38;;;;;;;;;;;12.90;1.00;;;;;;5010474;28;19960;-87
2022/05/13 01:24:04;;;;;;;;;;;12.80;1.00;;;;;;5009205;28;19961;-86
2022/05/13 01:26:51;;;;;;;;;;;12.80;1.00;;;;;;5011301;28;20381;-86
2022/05/13 01:29:32;;;;;;;;;;;;;;;;;;;;;
2022/05/13 01:32:03;;;;;;;;;;;12.70;1.00;;;;;;5012639;28;20367;-87
2022/05/13 01:34:56;;;;;;;;;;;;;;;;;;;;;
2022/05/13 01:37:26;;;;;;;;;;;12.60;1.00;;;;;;5012168;28;19913;-87
2022/05/13 01:39:51;;;;;;;;;;;12.60;1.00;;;;;;5009919;28;19929;-86
2022/05/13 01:42:19;;;;;;;;;;;12.50;1.00;;;;;;5027001;28;19913;-86
2022/05/13 01:45:02;;;;;;;;;;;12.50;1.00;;;;;;5022078;28;20007;-86
2022/05/13 01:47:35;;;;;;;;;;;12.50;1.00;;;;;;5009448;28;19945;-86
2022/05/13 01:50:05;;;;;;;;;;;12.50;1.00;;;;;;5011628;28;19917;-88
2022/05/13 01:52:51;;;;;;;;;;;12.50;1.00;;;;;;5009955;28;20001;-86
2022/05/13 01:55:26;;;;;;;;;;;12.40;1.00;;;;;;5011791;28;19936;-87
2022/05/13 01:58:25;;;;;;;;;;;;;;;;;;;;;
2022/05/13 02:01:07;;;;;;;;;;;;;;;;;;;;;
2022/05/13 02:06:34;;;;;;;;;;;12.30;1.00;;;;;;5011362;28;20059;-87
2022/05/13 02:09:02;;;;;;;;;;;12.30;1.00;;;;;;5011040;28;19923;-87
2022/05/13 02:11:41;;;;;;;;;;;12.20;1.00;;;;;;5019231;28;19913;-87
2022/05/13 02:14:26;;;;;;;;;;;12.20;1.00;;;;;;5035606;28;19989;-88
2022/05/13 02:17:02;;;;;;;;;;;12.10;1.00;;;;;;5015626;28;19918;-87
2022/05/13 02:22:33;;;;;;;;;;;12.00;1.00;;;;;;5009910;28;19917;-86
2022/05/13 02:25:03;;;;;;;;;;;12.00;1.00;;;;;;5010495;28;19922;-85
2022/05/13 02:30:28;;;;;;;;;;;;;;;;;;;;;
2022/05/13 02:33:06;;;;;;;;;;;11.80;1.00;;;;;;5013823;28;20297;-87
2022/05/13 02:35:59;;;;;;;;;;;11.80;1.00;;;;;;5010506;28;19913;-87
2022/05/13 02:38:30;;;;;;;;;;;11.80;1.00;;;;;;5005637;28;20282;-86
2022/05/13 02:44:10;;;;;;;;;;;11.70;1.00;;;;;;4990427;28;19945;-85
2022/05/13 02:49:52;;;;;;;;;;;11.60;1.00;;;;;;5011012;28;19919;-86
2022/05/13 02:58:28;;;;;;;;;;;11.50;1.00;;;;;;5011093;28;19913;-87
2022/05/13 03:04:08;;;;;;;;;;;11.50;1.00;;;;;;5005318;28;19917;-87
2022/05/13 03:06:46;;;;;;;;;;;11.40;1.00;;;;;;5015011;28;20416;-85
2022/05/13 03:09:33;;;;;;;;;;;;;;;;;;;;;
2022/05/13 03:15:37;;;;;;;;;;;;;;;;;;;;;
2022/05/13 03:20:54;;;;;;;;;;;11.30;1.00;;;;;;4995665;28;19980;-87
2022/05/13 03:23:20;;;;;;;;;;;11.30;1.00;;;;;;5016143;28;19953;-87
2022/05/13 03:26:03;;;;;;;;;;;;;;;;;;;;;
2022/05/13 03:28:56;;;;;;;;;;;;;;;;;;;;;
2022/05/13 03:31:47;;;;;;;;;;;11.20;1.00;;;;;;5010856;28;19913;-86
2022/05/13 03:34:31;;;;;;;;;;;11.20;1.00;;;;;;5007278;28;19968;-85
2022/05/13 03:39:55;;;;;;;;;;;;;;;;;;;;;
2022/05/13 03:42:54;;;;;;;;;;;;;;;;;;;;;
2022/05/13 03:45:40;;;;;;;;;;;11.20;1.00;;;;;;5010348;28;20108;-86
2022/05/13 03:48:11;;;;;;;;;;;11.20;16.60;;;;;;5014914;28;19914;-87
2022/05/13 03:50:46;;;;;;;;;;;11.20;74.10;;;;;;5011622;28;19914;-86
2022/05/13 03:53:21;;;;;;;;;;;11.20;99.90;;;;;;5009329;28;19914;-86
2022/05/13 03:55:46;;;;;;;;;;;11.20;99.90;;;;;;5010978;28;19976;-85
2022/05/13 03:58:12;;;;;;;;;;;11.20;99.90;;;;;;5015038;28;19922;-87
2022/05/13 04:01:02;;;;;;;;;;;11.20;99.90;;;;;;5013742;28;19917;-87
2022/05/13 04:03:51;;;;;;;;;;;11.20;99.90;;;;;;5013916;28;19925;-86
2022/05/13 04:09:41;;;;;;;;;;;11.30;99.90;;;;;;5014670;28;20005;-87
2022/05/13 04:18:15;;;;;;;;;;;11.40;99.90;;;;;;5012459;28;20260;-86
2022/05/13 04:21:08;;;;;;;;;;;11.40;99.90;;;;;;5011176;28;19921;-87
2022/05/13 04:23:53;;;;;;;;;;;11.40;99.90;;;;;;5012041;28;20003;-86
2022/05/13 04:29:37;;;;;;;;;;;;;;;;;;;;;
2022/05/13 04:32:08;;;;;;;;;;;11.50;99.90;;;;;;5013794;28;20289;-87
2022/05/13 04:34:51;;;;;;;;;;;;;;;;;;;;;
2022/05/13 04:37:25;;;;;;;;;;;11.60;99.90;;;;;;5008387;28;19913;-87
2022/05/13 04:48:54;;;;;;;;;;;12.00;1.00;;;;;;5013152;28;20421;-87
2022/05/13 04:51:40;;;;;;;;;;;12.10;1.00;;;;;;5018265;28;19924;-88
2022/05/13 04:54:16;;;;;;;;;;;;;;;;;;;;;
2022/05/13 04:56:45;;;;;;;;;;;12.20;1.00;;;;;;5027065;28;19995;-86
2022/05/13 04:59:41;;;;;;;;;;;;;;;;;;;;;
2022/05/13 05:02:16;;;;;;;;;;;12.30;1.00;;;;;;5014290;28;20022;-88
2022/05/13 05:04:51;;;;;;;;;;;12.30;1.00;;;;;;5019156;28;20264;-88
2022/05/13 05:07:49;;;;;;;;;;;;;;;;;;;;;
2022/05/13 05:10:25;;;;;;;;;;;;;;;;;;;;;
2022/05/13 05:13:16;;;;;;;;;;;12.50;1.00;;;;;;5018091;28;20012;-88
2022/05/13 05:22:15;;;;;;;;;;;;;;;;;;;;;
2022/05/13 05:24:59;;;;;;;;;;;;;;;;;;;;;
2022/05/13 05:27:34;;;;;;;;;;;;;;;;;;;;;
2022/05/13 05:30:26;;;;;;;;;;;13.80;99.90;;;;;;5020321;28;20452;-88
2022/05/13 05:33:04;;;;;;;;;;;14.00;99.90;;;;;;5017929;28;19920;-88
2022/05/13 05:35:29;;;;;;;;;;;14.10;99.90;;;;;;5018665;28;20195;-85
2022/05/13 05:37:55;;;;;;;;;;;14.20;99.90;;;;;;5020183;28;19913;-84
2022/05/13 05:40:21;;;;;;;;;;;14.30;99.90;;;;;;5015332;28;20326;-84
2022/05/13 05:42:49;;;;;;;;;;;14.40;99.90;;;;;;5015883;28;19917;-84
2022/05/13 05:45:17;;;;;;;;;;;14.50;99.90;;;;;;5013882;28;19910;-84
2022/05/13 05:47:45;;;;;;;;;;;14.90;99.90;;;;;;5016348;28;19913;-85
2022/05/13 05:50:13;;;;;;;;;;;15.70;99.90;;;;;;5015772;28;19910;-84
2022/05/13 05:52:38;;;;;;;;;;;16.60;99.90;;;;;;5017192;28;19968;-84
2022/05/13 05:58:15;;;;;;;;;;;18.90;99.90;;;;;;5017703;28;19985;-83
2022/05/13 06:00:45;;;;;;;;;;;21.10;99.90;;;;;;5016422;28;19910;-81
2022/05/13 06:03:11;;;;;;;;;;;23.40;99.90;;;;;;5017255;28;20290;-82
2022/05/13 06:05:39;;;;;;;;;;;26.20;99.90;;;;;;5014592;28;19915;-84
2022/05/13 06:08:05;;;;;;;;;;;28.80;99.90;;;;;;5011459;28;19910;-83
2022/05/13 06:10:31;;;;;;;;;;;30.70;99.90;;;;;;5011361;28;19914;-84
2022/05/13 06:13:07;;;;;;;;;;;31.00;99.90;;;;;;5010306;28;20038;-83
2022/05/13 06:15:45;;;;;;;;;;;;;;;;;;;;;
2022/05/13 06:18:11;;;;;;;;;;;33.30;99.90;;;;;;5011559;28;19910;-83
2022/05/13 06:21:02;;;;;;;;;;;34.40;99.90;;;;;;5013073;28;19973;-82
2022/05/13 06:26:40;;;;;;;;;;;34.80;99.90;;;;;;5011876;28;19925;-83
2022/05/13 06:29:13;;;;;;;;;;;35.70;99.90;;;;;;5011167;28;20416;-84
2022/05/13 06:31:46;;;;;;;;;;;36.10;99.90;;;;;;5010855;28;20012;-84
2022/05/13 06:34:12;;;;;;;;;;;35.70;99.90;;;;;;5010828;28;20008;-82
2022/05/13 06:36:40;;;;;;;;;;;35.50;99.90;;;;;;5010523;28;19941;-83
2022/05/13 06:39:07;;;;;;;;;;;36.20;99.90;;;;;;5010710;28;19913;-82
2022/05/13 06:41:37;;;;;;;;;;;35.20;99.90;;;;;;5012420;28;19913;-83
2022/05/13 06:44:19;;;;;;;;;;;;;;;;;;;;;
2022/05/13 06:47:16;;;;;;;;;;;35.20;99.90;;;;;;5010348;28;19913;-82
2022/05/13 06:52:43;;;;;;;;;;;38.70;99.90;;;;;;5008767;28;20421;-84
2022/05/13 06:55:17;;;;;;;;;;;40.30;99.90;;;;;;5009376;28;20409;-84
2022/05/13 06:57:45;;;;;;;;;;;42.40;99.90;;;;;;5008878;28;19917;-83
2022/05/13 07:00:28;;;;;;;;;;;;;;;;;;;;;
2022/05/13 07:06:10;;;;;;;;;;;;;;;;;;;;;
2022/05/13 07:20:52;;;;;;;;;;;44.90;99.90;;;;;;5070848;27;19964;-83
2022/05/13 07:23:20;;;;;;;;;;;34.90;99.90;;;;;;5061154;28;19913;-82
2022/05/13 07:25:46;;;;;;;;;;;34.70;99.90;;;;;;5056457;28;20003;-83
2022/05/13 07:28:11;;;;;;;;;;;33.80;99.90;;;;;;5061046;28;19959;-82
2022/05/13 07:30:37;;;;;;;;;;;32.80;99.90;;;;;;5055102;28;20480;-83
2022/05/13 07:33:22;;;;;;;;;;;33.00;99.90;;;;;;5050888;28;19912;-83
2022/05/13 07:35:48;;;;;;;;;;;32.90;99.90;;;;;;5046138;28;19913;-83
2022/05/13 07:38:14;;;;;;;;;;;32.20;99.90;;;;;;5052542;28;19959;-83
2022/05/13 07:43:31;;;;;;;;;;;32.50;99.90;;;;;;5048652;28;19936;-83
2022/05/13 07:45:59;;;;;;;;;;;32.60;99.90;;;;;;5048135;28;19956;-84
2022/05/13 07:48:48;;;;;;;;;;;31.60;99.90;;;;;;5053254;28;19928;-83
2022/05/13 07:51:33;;;;;;;;;;;;;;;;;;;;;
2022/05/13 07:54:22;;;;;;;;;;;31.20;99.90;;;;;;5058650;28;19997;-83
2022/05/13 07:56:49;;;;;;;;;;;30.70;99.90;;;;;;5052828;28;19913;-83
2022/05/13 07:59:17;;;;;;;;;;;31.80;99.90;;;;;;5053072;28;19917;-83
2022/05/13 08:01:42;;;;;;;;;;;32.30;99.90;;;;;;5059806;28;20289;-84
2022/05/13 08:04:08;;;;;;;;;;;32.20;99.90;;;;;;5066629;28;19984;-83
2022/05/13 08:06:37;;;;;;;;;;;32.60;99.90;;;;;;5051436;28;20283;-83
2022/05/13 08:09:02;;;;;;;;;;;33.00;99.90;;;;;;5051195;28;19947;-83
2022/05/13 08:11:31;;;;;;;;;;;34.20;99.90;;;;;;5045250;28;19914;-84
2022/05/13 08:14:01;;;;;;;;;;;34.80;99.90;;;;;;5048462;28;19940;-83
2022/05/13 08:16:29;;;;;;;;;;;35.40;99.90;;;;;;5045578;28;19917;-83
2022/05/13 08:18:56;;;;;;;;;;;35.30;99.90;;;;;;5043569;28;19963;-84
2022/05/13 08:21:24;;;;;;;;;;;35.50;99.90;;;;;;5034293;28;19956;-82
2022/05/13 08:23:49;;;;;;;;;;;36.00;99.90;;;;;;5026767;28;20006;-82
2022/05/13 08:26:17;;;;;;;;;;;36.20;99.90;;;;;;5025547;28;19917;-83
2022/05/13 08:28:43;;;;;;;;;;;36.50;99.90;;;;;;5030194;28;20318;-83
2022/05/13 08:31:09;;;;;;;;;;;36.80;99.90;;;;;;5034673;28;19927;-83
2022/05/13 08:33:35;;;;;;;;;;;37.10;99.90;;;;;;5030703;28;20550;-83
2022/05/13 08:36:04;;;;;;;;;;;37.80;99.90;;;;;;5033352;28;19913;-82
2022/05/13 08:38:33;;;;;;;;;;;37.40;99.90;;;;;;5034202;28;19929;-83
2022/05/13 08:41:07;;;;;;;;;;;38.10;99.90;;;;;;5032887;28;19913;-83
2022/05/13 08:43:46;;;;;;;;;;;37.50;99.90;;;;;;5029274;28;19913;-83
2022/05/13 08:46:14;;;;;;;;;;;37.50;99.90;;;;;;5032288;28;19918;-83
2022/05/13 08:48:51;;;;;;;;;;;37.40;99.90;;;;;;5030629;28;20280;-83
2022/05/13 08:51:40;;;;;;;;;;;37.50;99.90;;;;;;5031565;28;20007;-83
2022/05/13 08:54:09;;;;;;;;;;;37.40;99.90;;;;;;4991988;28;20283;-82
2022/05/13 08:56:35;;;;;;;;;;;37.60;99.90;;;;;;5031573;28;19917;-83
2022/05/13 08:59:08;;;;;;;;;;;37.40;99.90;;;;;;5036015;28;20381;-83
2022/05/13 09:02:00;;;;;;;;;;;37.70;99.90;;;;;;5034217;28;19919;-83
2022/05/13 09:04:44;;;;;;;;;;;38.20;99.90;;;;;;5028185;28;20428;-83
2022/05/13 09:07:13;;;;;;;;;;;38.20;99.90;;;;;;5029809;28;21259;-83
2022/05/13 09:10:01;;;;;;;;;;;38.70;99.90;;;;;;5028115;28;19925;-83
2022/05/13 09:12:53;;;;;;;;;;;38.90;99.90;;;;;;5027806;28;19935;-83
2022/05/13 09:15:49;;;;;;;;;;;;;;;;;;;;;
2022/05/13 09:21:18;;;;;;;;;;;39.00;99.90;;;;;;5034457;28;19922;-83
2022/05/13 09:23:47;;;;;;;;;;;35.80;99.80;;;;;;5039937;28;19909;-83
2022/05/13 09:26:17;;;;;;;;;;;36.20;99.90;;;;;;5032268;28;19920;-82
2022/05/13 09:29:07;;;;;;;;;;;37.70;99.90;;;;;;5036554;28;19913;-83
2022/05/13 09:31:35;;;;;;;;;;;37.80;99.90;;;;;;5033547;28;20192;-83
2022/05/13 09:34:01;;;;;;;;;;;38.40;99.90;;;;;;5032709;28;19917;-83
2022/05/13 09:36:26;;;;;;;;;;;39.30;99.90;;;;;;5046774;28;19921;-83
2022/05/13 09:38:52;;;;;;;;;;;39.50;99.90;;;;;;5032133;28;19913;-84
2022/05/13 09:41:33;;;;;;;;;;;39.50;99.90;;;;;;5037469;28;19914;-83
2022/05/13 09:44:18;;;;;;;;;;;37.30;99.60;;;;;;5040849;28;20330;-83
2022/05/13 09:46:45;;;;;;;;;;;36.00;96.90;;;;;;5041506;28;19967;-84
2022/05/13 09:49:13;;;;;;;;;;;35.70;95.70;;;;;;5036169;28;19917;-83
2022/05/13 09:51:49;;;;;;;;;;;35.80;97.00;;;;;;5041145;28;19993;-83
2022/05/13 09:54:20;;;;;;;;;;;36.70;98.80;;;;;;5035751;28;19916;-82
2022/05/13 09:56:48;;;;;;;;;;;35.90;97.20;;;;;;5032591;28;19910;-81
2022/05/13 09:59:27;;;;;;;;;;;35.80;96.20;;;;;;5033252;28;19936;-82
2022/05/13 10:01:55;;;;;;;;;;;34.70;94.60;;;;;;5034061;28;19909;-80
2022/05/13 10:04:22;;;;;;;;;;;33.50;94.20;;;;;;5032202;28;20152;-82
2022/05/13 10:06:47;;;;;;;;;;;33.50;91.80;;;;;;5043414;28;19920;-81
2022/05/13 10:14:50;;;;;;;;;;;33.20;93.60;;;;;;5035415;28;19936;-82
2022/05/13 10:17:20;;;;;;;;;;;32.90;92.50;;;;;;5042385;28;20383;-82
2022/05/13 10:19:45;;;;;;;;;;;31.30;88.40;;;;;;5036786;28;19921;-81
2022/05/13 10:22:17;;;;;;;;;;;29.80;82.70;;;;;;5033498;28;19916;-82
2022/05/13 10:24:49;;;;;;;;;;;28.90;80.70;;;;;;5029034;28;19968;-84
2022/05/13 10:27:20;;;;;;;;;;;30.40;90.00;;;;;;5030588;28;19990;-82
2022/05/13 10:29:48;;;;;;;;;;;31.80;93.50;;;;;;5040064;28;20322;-82
2022/05/13 10:32:19;;;;;;;;;;;32.50;94.80;;;;;;5044786;28;19974;-83
2022/05/13 10:34:48;;;;;;;;;;;33.10;96.10;;;;;;5031829;28;19913;-82
2022/05/13 10:37:21;;;;;;;;;;;33.60;97.00;;;;;;5038931;28;19921;-82
2022/05/13 10:39:50;;;;;;;;;;;33.80;96.70;;;;;;5033467;28;20371;-83
2022/05/13 10:42:25;;;;;;;;;;;33.00;95.00;;;;;;5035960;28;19944;-83
2022/05/13 10:45:09;;;;;;;;;;;32.90;95.20;;;;;;5036787;28;19913;-82
2022/05/13 10:47:41;;;;;;;;;;;32.30;93.20;;;;;;5039616;28;19979;-82
2022/05/13 10:50:26;;;;;;;;;;;30.60;89.60;;;;;;5035156;28;19943;-82
2022/05/13 10:53:00;;;;;;;;;;;29.30;84.50;;;;;;5030920;28;19920;-81
2022/05/13 10:55:35;;;;;;;;;;;28.40;82.20;;;;;;5028360;28;19913;-82
2022/05/13 10:58:09;;;;;;;;;;;29.30;88.60;;;;;;5033864;28;20389;-82
2022/05/13 11:00:44;;;;;;;;;;;30.00;90.70;;;;;;5038639;28;20390;-82
2022/05/13 11:03:14;;;;;;;;;;;29.70;90.80;;;;;;5048440;28;19913;-82
2022/05/13 11:05:44;;;;;;;;;;;29.50;91.30;;;;;;5044207;28;19917;-82
2022/05/13 11:08:18;;;;;;;;;;;31.20;95.30;;;;;;5041889;28;19916;-82
2022/05/13 11:10:57;;;;;;;;;;;32.10;96.50;;;;;;5028359;28;19914;-81
2022/05/13 11:13:24;;;;;;;;;;;30.60;92.90;;;;;;5032219;28;19927;-82
2022/05/13 11:15:55;;;;;;;;;;;29.90;91.90;;;;;;5033010;28;19920;-82
2022/05/13 11:18:30;;;;;;;;;;;29.30;91.70;;;;;;5037792;28;19917;-81
2022/05/13 11:21:20;;;;;;;;;;;28.50;90.20;;;;;;5032919;28;19920;-81
2022/05/13 11:26:52;;;;;;;;;;;28.10;89.80;;;;;;5030469;28;20358;-82
2022/05/13 11:29:27;;;;;;;;;;;27.80;88.40;;;;;;5030451;28;19921;-82
2022/05/13 11:32:03;;;;;;;;;;;28.40;91.40;;;;;;5037406;28;19913;-82
2022/05/13 11:34:31;;;;;;;;;;;28.90;92.60;;;;;;5038183;28;19913;-81
2022/05/13 11:36:58;;;;;;;;;;;28.70;92.10;;;;;;5035549;28;19915;-81
2022/05/13 11:39:36;;;;;;;;;;;29.10;93.20;;;;;;5042232;28;19923;-81
2022/05/13 11:42:09;;;;;;;;;;;29.50;94.00;;;;;;5037542;28;20398;-82
2022/05/13 11:44:37;;;;;;;;;;;30.30;99.90;;;;;;5019206;28;19936;-81
2022/05/13 11:47:19;;;;;;;;;;;31.10;97.60;;;;;;5048113;28;19913;-82
2022/05/13 11:49:47;;;;;;;;;;;30.90;96.90;;;;;;5044231;28;19920;-81
2022/05/13 11:52:12;;;;;;;;;;;29.90;95.00;;;;;;5027790;28;19917;-81
2022/05/13 11:54:39;;;;;;;;;;;30.00;95.10;;;;;;5021777;28;20336;-81
2022/05/13 11:57:24;;;;;;;;;;;30.50;96.30;;;;;;5041895;28;19996;-82
2022/05/13 12:00:15;;;;;;;;;;;31.10;97.10;;;;;;5055418;28;19940;-82
2022/05/13 12:02:55;;;;;;;;;;;31.50;97.80;;;;;;5043175;28;19947;-81
2022/05/13 12:05:21;;;;;;;;;;;31.70;98.70;;;;;;5044290;28;19917;-81
2022/05/13 12:07:52;;;;;;;;;;;32.30;99.00;;;;;;5048986;28;20016;-81
2022/05/13 12:10:23;;;;;;;;;;;31.80;97.60;;;;;;5047223;28;19956;-81
2022/05/13 12:12:54;;;;;;;;;;;31.80;97.70;;;;;;5042091;28;19958;-82
2022/05/13 12:15:41;;;;;;;;;;;31.70;97.50;;;;;;5034911;28;20371;-81
2022/05/13 12:18:07;;;;;;;;;;;31.30;96.30;;;;;;5021858;28;19948;-81
2022/05/13 12:20:35;;;;;;;;;;;31.20;95.90;;;;;;5025594;28;19921;-82
2022/05/13 12:23:05;;;;;;;;;;;31.50;97.00;;;;;;5033095;28;19917;-81
2022/05/13 12:25:31;;;;;;;;;;;31.60;97.10;;;;;;5032628;28;20369;-82
2022/05/13 12:28:02;;;;;;;;;;;32.30;98.40;;;;;;5042290;28;19956;-82
2022/05/13 12:30:31;;;;;;;;;;;32.40;98.50;;;;;;5039037;28;19912;-82
2022/05/13 12:33:17;;;;;;;;;;;31.70;96.90;;;;;;5029393;28;19913;-82
2022/05/13 12:38:31;;;;;;;;;;;31.40;96.70;;;;;;5049288;28;20368;-82
2022/05/13 12:41:05;;;;;;;;;;;31.20;96.00;;;;;;5033888;28;19913;-83
2022/05/13 12:43:54;;;;;;;;;;;30.80;95.10;;;;;;5044684;28;19948;-81
2022/05/13 12:46:21;;;;;;;;;;;30.70;94.70;;;;;;5035335;28;19949;-82
2022/05/13 12:48:56;;;;;;;;;;;30.80;95.50;;;;;;5030492;28;19924;-82
2022/05/13 12:51:21;;;;;;;;;;;30.30;94.70;;;;;;5035847;28;19922;-82
2022/05/13 12:53:46;;;;;;;;;;;30.00;94.00;;;;;;5044281;28;19924;-82
2022/05/13 12:56:31;;;;;;;;;;;29.70;93.50;;;;;;5050342;28;19956;-82
2022/05/13 12:58:59;;;;;;;;;;;29.40;93.20;;;;;;5037446;28;19977;-83
2022/05/13 13:01:25;;;;;;;;;;;29.80;94.20;;;;;;5040358;28;19917;-82
2022/05/13 13:03:50;;;;;;;;;;;29.80;94.50;;;;;;5037890;28;20233;-82
2022/05/13 13:06:19;;;;;;;;;;;29.60;94.00;;;;;;5047450;28;19913;-82
2022/05/13 13:08:47;;;;;;;;;;;29.30;94.30;;;;;;5050778;28;19924;-82
2022/05/13 13:11:13;;;;;;;;;;;29.30;93.80;;;;;;5039324;28;19983;-82
2022/05/13 13:13:41;;;;;;;;;;;29.30;94.20;;;;;;5042283;28;20391;-82
2022/05/13 13:16:35;;;;;;;;;;;29.00;94.10;;;;;;5030886;28;19914;-82
2022/05/13 13:19:06;;;;;;;;;;;28.80;94.50;;;;;;5013291;28;20337;-82
2022/05/13 13:21:31;;;;;;;;;;;28.80;93.60;;;;;;5030529;28;19909;-80
2022/05/13 13:23:57;;;;;;;;;;;28.60;95.20;;;;;;5030041;28;19967;-82
2022/05/13 13:26:22;;;;;;;;;;;28.40;93.60;;;;;;5034127;28;19920;-82
2022/05/13 13:28:52;;;;;;;;;;;28.50;94.10;;;;;;5051317;28;19928;-82
2022/05/13 13:31:23;;;;;;;;;;;28.50;94.50;;;;;;5037953;28;19921;-82
2022/05/13 13:33:53;;;;;;;;;;;28.40;94.50;;;;;;5045007;28;19924;-82
2022/05/13 13:36:29;;;;;;;;;;;28.40;94.80;;;;;;5041164;28;19922;-82
2022/05/13 13:38:56;;;;;;;;;;;28.40;95.20;;;;;;5027464;28;19917;-82
2022/05/13 13:41:31;;;;;;;;;;;28.30;94.80;;;;;;5032535;28;19917;-82
2022/05/13 13:43:58;;;;;;;;;;;28.00;94.50;;;;;;5046920;28;19921;-82
2022/05/13 13:46:27;;;;;;;;;;;27.90;94.50;;;;;;5038106;28;19935;-81
2022/05/13 13:48:55;;;;;;;;;;;28.10;95.10;;;;;;5033933;28;19923;-82
2022/05/13 13:51:22;;;;;;;;;;;28.00;95.10;;;;;;5035460;28;19943;-82
2022/05/13 13:53:53;;;;;;;;;;;27.80;95.00;;;;;;5037371;28;19920;-82
2022/05/13 13:56:19;;;;;;;;;;;27.70;94.50;;;;;;5032911;28;19944;-80
2022/05/13 13:59:06;;;;;;;;;;;27.60;95.00;;;;;;5040608;28;19913;-82
2022/05/13 14:01:33;;;;;;;;;;;27.60;95.20;;;;;;5035241;28;19913;-82
2022/05/13 14:04:09;;;;;;;;;;;27.30;95.00;;;;;;5037564;28;19980;-82
2022/05/13 14:06:35;;;;;;;;;;;26.80;94.30;;;;;;5044607;28;20260;-82
2022/05/13 14:09:01;;;;;;;;;;;26.40;94.20;;;;;;5040165;28;19928;-82
2022/05/13 14:11:27;;;;;;;;;;;26.10;93.90;;;;;;5029760;28;19913;-82
2022/05/13 14:13:54;;;;;;;;;;;25.90;94.10;;;;;;5039479;28;19917;-82
2022/05/13 14:16:20;;;;;;;;;;;25.60;94.20;;;;;;5032910;28;19923;-81
2022/05/13 14:18:47;;;;;;;;;;;25.40;99.90;;;;;;5041736;28;19924;-82
2022/05/13 14:21:23;;;;;;;;;;;25.30;94.40;;;;;;5037365;28;19913;-81
2022/05/13 14:23:59;;;;;;;;;;;25.10;94.50;;;;;;5055230;28;19936;-82
2022/05/13 14:26:25;;;;;;;;;;;25.00;94.50;;;;;;5037088;28;19914;-82
2022/05/13 14:28:53;;;;;;;;;;;24.70;94.50;;;;;;5037680;28;19928;-82
2022/05/13 14:31:32;;;;;;;;;;;24.70;94.90;;;;;;5049979;28;19940;-82
2022/05/13 14:33:58;;;;;;;;;;;24.70;95.40;;;;;;5030761;28;19952;-82
2022/05/13 14:36:37;;;;;;;;;;;24.70;96.00;;;;;;5033620;28;20298;-82
2022/05/13 14:41:51;;;;;;;;;;;24.60;96.50;;;;;;5033779;28;20429;-81
2022/05/13 14:44:25;;;;;;;;;;;24.50;96.90;;;;;;5030951;28;20246;-82
2022/05/13 14:46:56;;;;;;;;;;;24.30;96.90;;;;;;5055528;28;20027;-82
2022/05/13 14:49:48;;;;;;;;;;;24.30;97.60;;;;;;5040376;28;19983;-82
2022/05/13 14:52:34;;;;;;;;;;;24.40;97.60;;;;;;5036056;28;20687;-81
2022/05/13 14:55:00;;;;;;;;;;;24.50;98.50;;;;;;5042144;28;20379;-82
2022/05/13 14:57:25;;;;;;;;;;;24.30;98.50;;;;;;5028835;28;19913;-83
2022/05/13 14:59:51;;;;;;;;;;;24.10;98.50;;;;;;5035556;28;20391;-82
2022/05/13 15:02:46;;;;;;;;;;;24.00;98.10;;;;;;5036354;28;19913;-82
2022/05/13 15:05:30;;;;;;;;;;;24.10;98.90;;;;;;5014395;28;19913;-82
2022/05/13 15:07:56;;;;;;;;;;;23.80;98.80;;;;;;5035640;28;19914;-80
2022/05/13 15:10:24;;;;;;;;;;;24.00;99.80;;;;;;5037577;28;19935;-81
2022/05/13 15:12:51;;;;;;;;;;;24.10;99.90;;;;;;5038344;28;20017;-81
2022/05/13 15:15:16;;;;;;;;;;;24.00;99.90;;;;;;5029260;28;20023;-81
2022/05/13 15:17:50;;;;;;;;;;;23.90;99.90;;;;;;5048116;28;19909;-81
2022/05/13 15:20:16;;;;;;;;;;;23.80;99.90;;;;;;5024011;28;19932;-82
2022/05/13 15:22:42;;;;;;;;;;;23.80;99.90;;;;;;5034252;28;19913;-80
2022/05/13 15:25:09;;;;;;;;;;;23.80;99.90;;;;;;5036721;28;20826;-81
2022/05/13 15:27:35;;;;;;;;;;;23.80;99.90;;;;;;5036461;28;20451;-83
2022/05/13 15:30:00;;;;;;;;;;;23.90;99.90;;;;;;5035245;28;19948;-83
2022/05/13 15:32:26;;;;;;;;;;;23.90;99.90;;;;;;5041604;28;19932;-84
2022/05/13 15:34:51;;;;;;;;;;;23.80;99.90;;;;;;5041373;28;19920;-80
2022/05/13 15:37:19;;;;;;;;;;;23.90;99.90;;;;;;5046210;28;19917;-81
2022/05/13 15:39:45;;;;;;;;;;;24.00;99.90;;;;;;5039549;28;20335;-80
2022/05/13 15:42:11;;;;;;;;;;;23.90;99.90;;;;;;5037574;28;19948;-82
2022/05/13 15:44:37;;;;;;;;;;;23.90;99.90;;;;;;5044656;28;19917;-81
2022/05/13 15:47:03;;;;;;;;;;;23.80;99.90;;;;;;5043167;28;19928;-79
2022/05/13 15:54:57;;;;;;;;;;;23.70;99.90;;;;;;5042870;28;19935;-81
2022/05/13 15:57:32;;;;;;;;;;;23.70;99.90;;;;;;5031398;28;19941;-84
2022/05/13 15:59:59;;;;;;;;;;;23.50;99.90;;;;;;5038515;28;20311;-84
2022/05/13 16:02:25;;;;;;;;;;;23.50;99.90;;;;;;5034664;28;20298;-84
2022/05/13 16:04:50;;;;;;;;;;;23.40;99.90;;;;;;5039427;28;19960;-83
2022/05/13 16:07:15;;;;;;;;;;;23.40;99.90;;;;;;5038651;28;19940;-84
2022/05/13 16:09:41;;;;;;;;;;;23.50;99.90;;;;;;5042237;28;19917;-83
2022/05/13 16:12:08;;;;;;;;;;;23.40;99.90;;;;;;5041873;28;19941;-84
2022/05/13 16:14:33;;;;;;;;;;;23.20;99.90;;;;;;5042213;28;19981;-85
2022/05/13 16:17:01;;;;;;;;;;;23.20;99.90;;;;;;5052744;28;19921;-84
2022/05/13 16:19:26;;;;;;;;;;;23.30;99.90;;;;;;5048836;28;19959;-84
2022/05/13 16:21:53;;;;;;;;;;;23.30;99.90;;;;;;5045403;28;20361;-83
2022/05/13 16:24:21;;;;;;;;;;;23.20;99.90;;;;;;5050281;28;19939;-83
2022/05/13 16:26:48;;;;;;;;;;;23.10;99.90;;;;;;5044848;28;19936;-84
2022/05/13 16:29:14;;;;;;;;;;;23.20;99.90;;;;;;5063987;28;19944;-82
2022/05/13 16:31:39;;;;;;;;;;;23.10;99.90;;;;;;5041524;28;19913;-85
2022/05/13 16:34:07;;;;;;;;;;;23.20;99.90;;;;;;5044974;28;19917;-84
2022/05/13 16:37:41;;;;;;;;;;;23.20;99.90;;;;;;5042713;28;19920;-85
2022/05/13 16:39:21;;;;;;;;;;;23.20;99.90;;;;;;5046045;28;19955;-85
2022/05/13 16:41:47;;;;;;;;;;;23.00;99.90;;;;;;5036382;28;20322;-85
2022/05/13 16:44:12;;;;;;;;;;;22.90;99.90;;;;;;5049120;28;19936;-84
2022/05/13 16:46:38;;;;;;;;;;;22.80;99.90;;;;;;5036890;28;19921;-84
2022/05/13 16:49:03;;;;;;;;;;;22.70;99.90;;;;;;5049869;28;19919;-84
2022/05/13 16:51:29;;;;;;;;;;;22.60;99.90;;;;;;5040479;28;19951;-83
2022/05/13 16:53:54;;;;;;;;;;;22.40;99.90;;;;;;5042726;28;19913;-84
2022/05/13 16:56:20;;;;;;;;;;;22.40;99.90;;;;;;5030831;28;19994;-84
2022/05/13 16:58:45;;;;;;;;;;;22.30;99.90;;;;;;5039197;28;19917;-84
2022/05/13 17:01:11;;;;;;;;;;;22.40;99.90;;;;;;5045269;28;19913;-84
2022/05/13 17:03:37;;;;;;;;;;;22.30;99.90;;;;;;5040077;28;19917;-84
2022/05/13 17:06:02;;;;;;;;;;;22.20;99.90;;;;;;5043329;28;19974;-84
2022/05/13 17:16:12;;;;;;;;;;;22.10;99.90;;;;;;5050941;28;19920;-83
2022/05/13 17:16:42;;;;;;;;;;;21.90;99.90;;;;;;5045800;28;19968;-84
2022/05/13 17:19:17;;;;;;;;;;;21.80;99.90;;;;;;5034158;28;19924;-84
2022/05/13 17:21:48;;;;;;;;;;;21.80;99.90;;;;;;5052781;28;19912;-84
2022/05/13 17:24:18;;;;;;;;;;;21.70;99.90;;;;;;5032340;28;19913;-84
2022/05/13 17:26:51;;;;;;;;;;;21.60;99.90;;;;;;5039511;28;19940;-81
2022/05/13 17:29:17;;;;;;;;;;;21.50;99.90;;;;;;5032305;28;19909;-82
2022/05/13 17:31:42;;;;;;;;;;;21.40;99.90;;;;;;5043720;28;20054;-84